Station: EBLG - 23/03/2017 10:20Z (il y a 9 minutes)
EBLG 231020Z 06007KT CAVOK 11/04 Q1014 NOSIG
Vent du 060º - 7 kt
Visibilité > 10 km et plafond haut ou pas de nuages significatifs
Température: +11ºC - Point de rosée: +04ºC - QNH: 1014 hPa
Pas de changement significatif prévu dans les 2 heures qui suivent l'observation